This is the latest recevied weather packets stored in our database for station/object DK5GB. If no packets are shown the sender has not sent any weather packets the latest 10 day(s).
| Time | Temp. | Humidity | Pressure | Rain* | Wind** | Luminosity | Snow |
|---|---|---|---|---|---|---|---|
| 1777149937 | 9.44° C | 61% | 1023 hPa | 0 mm | - | - | - |
| 1777147517 | 10.56° C | 58% | 1022.8 hPa | 0 mm | - | - | - |
| 1777145116 | 12.22° C | 53% | 1022.3 hPa | 0 mm | - | - | - |
| 1777143916 | 13.33° C | 50% | 1021.9 hPa | 0 mm | - | - | - |
| 1777140956 | 15° C | 43% | 1021 hPa | 0 mm | - | - | - |
| 1777137918 | 17.22° C | 36% | 1020.5 hPa | 0 mm | - | - | - |
| 1777124117 | 21.67° C | 38% | 1021.1 hPa | 0 mm | - | - | - |
| 1777121117 | 21.11° C | 38% | 1021.3 hPa | 0 mm | - | - | - |
| 1777119317 | 21.11° C | 43% | 1021.6 hPa | 0 mm | - | - | - |
| 1777118118 | 20.56° C | 37% | 1021.6 hPa | 0 mm | - | - | - |
| 1777107917 | 17.22° C | 53% | 1022.5 hPa | 0 mm | - | - | - |
| 1777098316 | 9.44° C | 73% | 1022.4 hPa | 0 mm | - | - | - |
| 1777096516 | 5.56° C | 82% | 1022.2 hPa | 0 mm | - | - | - |
| 1777092916 | 3.33° C | 83% | 1022.2 hPa | 0 mm | - | - | - |
| 1777088736 | 3.33° C | 80% | 1022.1 hPa | 0 mm | - | - | - |
| 1777080317 | 5.56° C | 74% | 1022.6 hPa | 0 mm | - | - | - |
| 1777076716 | 6.11° C | 70% | 1022.9 hPa | 0 mm | - | - | - |
| 1777076116 | 6.67° C | 70% | 1022.9 hPa | 0 mm | - | - | - |
| 1777075516 | 6.67° C | 69% | 1022.9 hPa | 0 mm | - | - | - |
| 1777073118 | 7.22° C | 67% | 1023.1 hPa | 0 mm | - | - | - |
| 1777066516 | 8.33° C | 62% | 1023.3 hPa | 0 mm | - | - | - |
| 1777063518 | 9.44° C | 60% | 1023.1 hPa | 0 mm | - | - | - |
| 1777062317 | 10° C | 59% | 1023.1 hPa | 0 mm | - | - | - |
| 1777055117 | 13.89° C | 46% | 1022.6 hPa | 0 mm | - | - | - |
| 1777051517 | 16.11° C | 38% | 1022.3 hPa | 0 mm | - | - | - |
* Rain latest hour (hover to see other rain measurements)
** Current wind speed in m/s (hover to see current wind gust speed)